Usinsk, Russia
Current Conditions -  °F | °C
As of 9:00 AM on Saturday 25 Oct 2014 (Local Time) from UUYY Reporting Station
Snow Showers Snow Showers  
Wind Chill:   Ceiling: 1600
Heat Index: 19°   Visibility: 2.2mi
Dew Point: 16°   Wind: 9mph
Humidity: 86%   Direction: 340°NNW
Pressure: 30.39"   Gusts: 16mph
Location:  65.92°N, 57.41°E
Report Text: UUYY 250600Z 34004G07MPS 3600 -SHSN BKN016CB OVC066 M07/M09 Q1029 TEMPO 1000 SHSN 0182//49 RMK QFE762/1017
Loading
Personal Weather Stations






























Interactive Weather Map
Tropical Storm Tracking
New forecast layout! Learn more

10-Day Weather Forecast

Advertisements
Track Severe Weather on mobile